createdAt,value
2022-11-28T00:02:30.049Z,8
2022-11-28T00:07:34.415Z,7
2022-11-28T00:12:37.874Z,9
2022-11-28T00:17:42.555Z,7
2022-11-28T00:22:46.967Z,9
2022-11-28T00:27:50.489Z,13
2022-11-28T00:32:55.173Z,12
2022-11-28T00:37:59.586Z,9
2022-11-28T00:43:03.153Z,10
2022-11-28T00:48:07.795Z,10
2022-11-28T00:53:12.245Z,11
2022-11-28T00:58:15.892Z,11
2022-11-28T01:03:20.401Z,13
2022-11-28T01:08:24.809Z,12
2022-11-28T01:13:29.370Z,13
2022-11-28T01:18:33.050Z,13
2022-11-28T01:23:37.432Z,13
2022-11-28T01:28:41.968Z,11
2022-11-28T01:33:45.653Z,14
2022-11-28T01:38:50.058Z,13
2022-11-28T01:43:54.598Z,15
2022-11-28T01:48:58.266Z,14
2022-11-28T01:54:02.717Z,15
2022-11-28T01:59:06.262Z,14
2022-11-28T02:04:10.880Z,14
2022-11-28T02:09:15.321Z,14
2022-11-28T02:14:18.893Z,16
2022-11-28T02:19:23.639Z,14
2022-11-28T02:24:27.933Z,0
2022-11-28T02:29:31.453Z,0
2022-11-28T02:34:36.144Z,0
2022-11-28T02:39:40.527Z,0
2022-11-28T02:44:44.559Z,0
2022-11-28T02:49:48.732Z,1
2022-11-28T02:54:53.192Z,0
2022-11-28T02:59:57.746Z,0
2022-11-28T03:05:01.379Z,0
2022-11-28T03:10:05.817Z,0
2022-11-28T03:15:10.344Z,2
2022-11-28T03:20:13.994Z,8
2022-11-28T03:25:18.401Z,17
2022-11-28T03:30:22.958Z,16
2022-11-28T03:35:26.661Z,17
2022-11-28T03:40:31.006Z,17
2022-11-28T03:45:35.595Z,16
2022-11-28T03:50:39.252Z,15
2022-11-28T03:55:43.753Z,17
2022-11-28T04:00:48.275Z,16
2022-11-28T04:05:52.841Z,16
2022-11-28T04:10:56.268Z,19
2022-11-28T04:16:00.848Z,15
2022-11-28T04:21:05.463Z,15
2022-11-28T04:26:08.914Z,13
2022-11-28T04:31:13.421Z,12
2022-11-28T04:36:18.109Z,14
2022-11-28T04:41:21.494Z,13
2022-11-28T04:46:26.081Z,13
2022-11-28T04:51:30.679Z,12
2022-11-28T04:56:34.109Z,12
2022-11-28T05:01:38.710Z,12
2022-11-28T05:06:43.306Z,14
2022-11-28T05:11:47.729Z,13
2022-11-28T05:16:51.461Z,12
2022-11-28T05:21:55.930Z,14
2022-11-28T05:27:00.333Z,12
2022-11-28T05:32:04.069Z,12
2022-11-28T05:37:08.586Z,11
2022-11-28T05:42:13.005Z,15
2022-11-28T05:47:17.609Z,13
2022-11-28T05:52:22.309Z,11
2022-11-28T05:57:26.696Z,11
2022-11-28T06:02:30.312Z,12
2022-11-28T06:07:35.000Z,11
2022-11-28T06:12:39.468Z,12
2022-11-28T06:17:43.997Z,12
2022-11-28T06:22:48.633Z,12
2022-11-28T06:27:53.153Z,12
2022-11-28T06:32:57.711Z,13
2022-11-28T06:38:02.363Z,13
2022-11-28T06:43:05.798Z,13
2022-11-28T06:48:10.324Z,16
2022-11-28T06:53:14.979Z,15
2022-11-28T06:58:19.404Z,17
2022-11-28T07:03:22.941Z,19
2022-11-28T07:08:27.653Z,16
2022-11-28T07:13:32.039Z,21
2022-11-28T07:18:36.684Z,17
2022-11-28T07:23:41.302Z,19
2022-11-28T07:28:45.774Z,20
2022-11-28T07:33:49.377Z,20
2022-11-28T07:38:53.879Z,27
2022-11-28T07:43:58.360Z,29
2022-11-28T07:49:01.944Z,24
2022-11-28T07:54:06.482Z,23
2022-11-28T07:59:10.991Z,22
2022-11-28T08:04:15.679Z,18
2022-11-28T08:09:19.115Z,0
2022-11-28T08:14:23.583Z,1
2022-11-28T08:19:31.894Z,1
2022-11-28T08:24:31.723Z,0
2022-11-28T08:29:36.244Z,0
2022-11-28T08:34:40.742Z,0
2022-11-28T08:39:44.785Z,0
2022-11-28T08:44:48.855Z,1
2022-11-28T08:49:53.382Z,0
2022-11-28T08:54:58.040Z,1
2022-11-28T09:00:02.587Z,0
2022-11-28T09:05:07.110Z,1
2022-11-28T09:10:11.669Z,0
2022-11-28T09:15:15.200Z,0
2022-11-28T09:20:19.703Z,0
2022-11-28T09:25:24.306Z,0
2022-11-28T09:30:27.974Z,0
2022-11-28T09:35:32.341Z,0
2022-11-28T09:40:36.905Z,0
2022-11-28T09:45:40.472Z,0
2022-11-28T09:50:44.946Z,0
2022-11-28T09:55:49.546Z,0
2022-11-28T10:00:55.574Z,0
2022-11-28T10:05:57.564Z,0
2022-11-28T10:11:02.140Z,0
2022-11-28T10:16:06.680Z,0
2022-11-28T10:21:10.202Z,0
2022-11-28T10:26:13.821Z,1
2022-11-28T10:31:18.345Z,0
2022-11-28T10:36:22.835Z,0
2022-11-28T10:41:26.443Z,0
2022-11-28T10:46:30.936Z,21
2022-11-28T10:51:35.444Z,22
2022-11-28T10:56:40.015Z,21
2022-11-28T11:01:47.375Z,22
2022-11-28T11:07:07.490Z,22
2022-11-28T11:11:52.665Z,22
2022-11-28T11:16:56.165Z,20
2022-11-28T11:22:00.695Z,21
2022-11-28T11:27:05.271Z,22
2022-11-28T11:32:08.770Z,24
2022-11-28T11:37:13.312Z,28
2022-11-28T11:42:17.876Z,26
2022-11-28T11:47:21.397Z,26
2022-11-28T11:52:25.949Z,26
2022-11-28T11:57:33.615Z,29
2022-11-28T12:02:35.180Z,29
2022-11-28T12:07:38.622Z,29
2022-11-28T12:12:43.118Z,26
2022-11-28T12:17:49.491Z,23
2022-11-28T12:22:51.170Z,17
2022-11-28T12:27:55.732Z,0
2022-11-28T12:33:00.204Z,0
2022-11-28T12:38:10.771Z,4
2022-11-28T12:43:08.400Z,0
2022-11-28T12:48:12.861Z,0
2022-11-28T12:53:17.387Z,0
2022-11-28T12:58:20.953Z,0
2022-11-28T13:03:25.585Z,1
2022-11-28T13:08:30.022Z,0
2022-11-28T13:13:33.581Z,1
2022-11-28T13:18:38.112Z,0
2022-11-28T13:23:42.639Z,0
2022-11-28T13:28:47.335Z,0
2022-11-28T13:33:51.789Z,0
2022-11-28T13:39:11.670Z,0
2022-11-28T13:44:01.015Z,0
2022-11-28T13:49:14.581Z,0
2022-11-28T13:54:11.687Z,0
2022-11-28T13:59:14.627Z,0
2022-11-28T14:04:18.201Z,0
2022-11-28T14:09:22.683Z,0
2022-11-28T14:14:27.225Z,0
2022-11-28T14:19:30.741Z,0
2022-11-28T14:24:35.299Z,0
2022-11-28T14:29:39.855Z,0
2022-11-28T14:34:43.745Z,0
2022-11-28T14:39:46.946Z,0
2022-11-28T14:44:51.479Z,0
2022-11-28T14:49:56.013Z,0
2022-11-28T14:55:00.515Z,0
2022-11-28T15:00:04.367Z,0
2022-11-28T15:05:08.659Z,0
2022-11-28T15:10:13.183Z,0
2022-11-28T15:15:16.793Z,0
2022-11-28T15:20:21.220Z,0
2022-11-28T15:25:25.761Z,0
2022-11-28T15:30:29.364Z,1
2022-11-28T15:35:33.857Z,0
2022-11-28T15:40:38.389Z,2
2022-11-28T15:45:41.979Z,0
2022-11-28T15:50:46.452Z,1
2022-11-28T15:55:50.987Z,0
2022-11-28T16:00:55.602Z,0
2022-11-28T16:05:59.082Z,1
2022-11-28T16:11:03.624Z,0
2022-11-28T16:16:08.279Z,0
2022-11-28T16:21:11.704Z,0
2022-11-28T16:26:16.217Z,0
2022-11-28T16:31:20.828Z,0
2022-11-28T16:36:24.301Z,0
2022-11-28T16:41:28.846Z,1
2022-11-28T16:46:33.429Z,1
2022-11-28T16:51:36.945Z,0
2022-11-28T16:56:41.473Z,0
2022-11-28T17:01:46.136Z,1
2022-11-28T17:06:50.510Z,0
2022-11-28T17:11:54.104Z,0
2022-11-28T17:16:59.942Z,0
2022-11-28T17:22:03.139Z,2
2022-11-28T17:27:06.719Z,0
2022-11-28T17:32:11.277Z,0
2022-11-28T17:37:15.760Z,0
2022-11-28T17:42:19.311Z,0
2022-11-28T17:47:23.918Z,2
2022-11-28T17:52:28.404Z,0
2022-11-28T17:57:31.954Z,0
2022-11-28T18:02:36.531Z,0
2022-11-28T18:07:41.115Z,1
2022-11-28T18:12:45.536Z,0
2022-11-28T18:17:49.146Z,0
2022-11-28T18:22:53.638Z,0
2022-11-28T18:27:58.137Z,0
2022-11-28T18:33:01.751Z,0
2022-11-28T18:38:06.222Z,0
2022-11-28T18:43:10.764Z,1
2022-11-28T18:48:14.343Z,0
2022-11-28T18:53:18.842Z,0
2022-11-28T18:58:22.447Z,1
2022-11-28T19:03:26.980Z,0
2022-11-28T19:08:31.481Z,0
2022-11-28T19:13:35.048Z,0
2022-11-28T19:18:39.604Z,0
2022-11-28T19:23:44.105Z,0
2022-11-28T19:28:47.670Z,0
2022-11-28T19:33:56.116Z,1
2022-11-28T19:38:56.689Z,0
2022-11-28T19:44:00.304Z,0
2022-11-28T19:49:04.810Z,1
2022-11-28T19:54:09.524Z,1
2022-11-28T19:59:13.908Z,0
2022-11-28T20:04:17.447Z,0
2022-11-28T20:09:21.959Z,3
2022-11-28T20:14:26.496Z,1
2022-11-28T20:19:30.115Z,0
2022-11-28T20:24:34.585Z,1
2022-11-28T20:29:39.088Z,1
2022-11-28T20:34:42.828Z,0
2022-11-28T20:39:47.433Z,1
2022-11-28T20:44:51.734Z,0
2022-11-28T20:49:55.284Z,1
2022-11-28T20:54:59.824Z,0
2022-11-28T21:00:04.320Z,1
2022-11-28T21:05:08.880Z,0
2022-11-28T21:10:12.421Z,0
2022-11-28T21:15:16.994Z,1
2022-11-28T21:20:21.528Z,0
2022-11-28T21:25:25.065Z,0
2022-11-28T21:30:29.565Z,1
2022-11-28T21:35:34.117Z,0
2022-11-28T21:40:37.634Z,0
2022-11-28T21:45:42.240Z,0
2022-11-28T21:50:46.758Z,0
2022-11-28T21:55:50.291Z,1
2022-11-28T22:00:54.816Z,2
2022-11-28T22:05:59.359Z,1
2022-11-28T22:11:03.891Z,2
2022-11-28T22:16:07.461Z,2
2022-11-28T22:21:49.381Z,1
2022-11-28T22:26:16.508Z,0
2022-11-28T22:31:20.118Z,0
2022-11-28T22:36:24.611Z,1
2022-11-28T22:41:29.762Z,1
2022-11-28T22:46:32.668Z,1
2022-11-28T22:51:37.192Z,1
2022-11-28T22:56:41.767Z,1
2022-11-28T23:01:45.334Z,1
2022-11-28T23:06:49.850Z,1
2022-11-28T23:11:53.346Z,1
2022-11-28T23:16:57.907Z,0
2022-11-28T23:22:02.476Z,0
2022-11-28T23:27:05.978Z,0
2022-11-28T23:32:10.506Z,0
2022-11-28T23:37:15.079Z,0
2022-11-28T23:42:18.613Z,0
2022-11-28T23:47:23.294Z,0
2022-11-28T23:52:27.666Z,0
2022-11-28T23:57:32.218Z,0
